sensor_id;sensor_type;location;lat;lon;timestamp;temperature;humidity
16271;DHT22;8243;49.048;8.396;2023-07-13T00:01:27;18.80;38.10
16271;DHT22;8243;49.048;8.396;2023-07-13T00:03:54;18.60;39.80
16271;DHT22;8243;49.048;8.396;2023-07-13T00:06:19;18.50;41.00
16271;DHT22;8243;49.048;8.396;2023-07-13T00:08:45;18.40;43.00
16271;DHT22;8243;49.048;8.396;2023-07-13T00:11:12;18.30;44.90
16271;DHT22;8243;49.048;8.396;2023-07-13T00:13:38;18.20;45.40
16271;DHT22;8243;49.048;8.396;2023-07-13T00:16:05;18.10;46.50
16271;DHT22;8243;49.048;8.396;2023-07-13T00:18:30;18.10;47.50
16271;DHT22;8243;49.048;8.396;2023-07-13T00:20:57;17.90;49.90
16271;DHT22;8243;49.048;8.396;2023-07-13T00:23:32;17.90;51.40
16271;DHT22;8243;49.048;8.396;2023-07-13T00:25:59;17.80;52.80
16271;DHT22;8243;49.048;8.396;2023-07-13T00:28:25;17.80;56.20
16271;DHT22;8243;49.048;8.396;2023-07-13T00:30:51;17.70;57.20
16271;DHT22;8243;49.048;8.396;2023-07-13T00:33:16;17.60;59.40
16271;DHT22;8243;49.048;8.396;2023-07-13T00:35:42;17.60;59.90
16271;DHT22;8243;49.048;8.396;2023-07-13T00:38:09;17.50;61.50
16271;DHT22;8243;49.048;8.396;2023-07-13T00:40:35;17.40;64.50
16271;DHT22;8243;49.048;8.396;2023-07-13T00:43:00;17.40;66.20
16271;DHT22;8243;49.048;8.396;2023-07-13T00:47:54;17.40;68.80
16271;DHT22;8243;49.048;8.396;2023-07-13T00:50:21;17.30;70.40
16271;DHT22;8243;49.048;8.396;2023-07-13T00:52:50;17.10;72.40
16271;DHT22;8243;49.048;8.396;2023-07-13T00:55:17;17.00;73.00
16271;DHT22;8243;49.048;8.396;2023-07-13T00:57:43;16.90;76.70
16271;DHT22;8243;49.048;8.396;2023-07-13T01:00:10;16.90;82.10
16271;DHT22;8243;49.048;8.396;2023-07-13T01:02:39;16.80;84.20
16271;DHT22;8243;49.048;8.396;2023-07-13T01:05:13;16.80;84.20
16271;DHT22;8243;49.048;8.396;2023-07-13T01:07:40;16.80;86.20
16271;DHT22;8243;49.048;8.396;2023-07-13T01:10:08;16.80;87.10
16271;DHT22;8243;49.048;8.396;2023-07-13T01:12:33;16.80;88.90
16271;DHT22;8243;49.048;8.396;2023-07-13T01:15:01;16.80;89.80
16271;DHT22;8243;49.048;8.396;2023-07-13T01:17:28;16.70;91.00
16271;DHT22;8243;49.048;8.396;2023-07-13T01:19:54;16.70;90.90
16271;DHT22;8243;49.048;8.396;2023-07-13T01:22:20;16.80;90.10
16271;DHT22;8243;49.048;8.396;2023-07-13T01:24:50;16.90;89.70
16271;DHT22;8243;49.048;8.396;2023-07-13T01:27:21;16.80;90.40
16271;DHT22;8243;49.048;8.396;2023-07-13T01:29:46;16.80;90.70
16271;DHT22;8243;49.048;8.396;2023-07-13T01:32:21;16.70;90.50
16271;DHT22;8243;49.048;8.396;2023-07-13T01:34:52;16.70;90.40
16271;DHT22;8243;49.048;8.396;2023-07-13T01:37:23;16.60;90.80
16271;DHT22;8243;49.048;8.396;2023-07-13T01:39:49;16.70;91.00
16271;DHT22;8243;49.048;8.396;2023-07-13T01:42:15;16.60;91.70
16271;DHT22;8243;49.048;8.396;2023-07-13T01:44:40;16.60;91.50
16271;DHT22;8243;49.048;8.396;2023-07-13T01:47:06;16.60;92.80
16271;DHT22;8243;49.048;8.396;2023-07-13T01:49:32;16.60;93.30
16271;DHT22;8243;49.048;8.396;2023-07-13T01:51:57;16.50;94.50
16271;DHT22;8243;49.048;8.396;2023-07-13T01:54:23;16.50;95.30
16271;DHT22;8243;49.048;8.396;2023-07-13T01:56:48;16.40;95.70
16271;DHT22;8243;49.048;8.396;2023-07-13T01:59:14;16.30;96.10
16271;DHT22;8243;49.048;8.396;2023-07-13T02:01:40;16.40;97.40
16271;DHT22;8243;49.048;8.396;2023-07-13T02:04:05;16.40;97.70
16271;DHT22;8243;49.048;8.396;2023-07-13T02:06:31;16.40;97.00
16271;DHT22;8243;49.048;8.396;2023-07-13T02:08:57;16.40;97.00
16271;DHT22;8243;49.048;8.396;2023-07-13T02:11:23;16.40;97.50
16271;DHT22;8243;49.048;8.396;2023-07-13T02:13:48;16.50;96.50
16271;DHT22;8243;49.048;8.396;2023-07-13T02:16:14;16.40;98.00
16271;DHT22;8243;49.048;8.396;2023-07-13T02:18:40;16.40;98.90
16271;DHT22;8243;49.048;8.396;2023-07-13T02:21:05;16.40;99.90
16271;DHT22;8243;49.048;8.396;2023-07-13T02:23:31;16.20;99.90
16271;DHT22;8243;49.048;8.396;2023-07-13T02:25:58;16.20;99.90
16271;DHT22;8243;49.048;8.396;2023-07-13T02:28:24;16.20;99.90
16271;DHT22;8243;49.048;8.396;2023-07-13T02:30:50;16.10;99.90
16271;DHT22;8243;49.048;8.396;2023-07-13T02:33:15;16.00;99.90
16271;DHT22;8243;49.048;8.396;2023-07-13T02:35:41;16.00;99.90
16271;DHT22;8243;49.048;8.396;2023-07-13T02:38:07;16.00;99.90
16271;DHT22;8243;49.048;8.396;2023-07-13T02:40:34;16.00;99.90
16271;DHT22;8243;49.048;8.396;2023-07-13T02:43:01;15.90;99.90
16271;DHT22;8243;49.048;8.396;2023-07-13T02:45:27;15.90;99.90
16271;DHT22;8243;49.048;8.396;2023-07-13T02:47:53;15.90;99.90
16271;DHT22;8243;49.048;8.396;2023-07-13T02:50:19;15.90;99.90
16271;DHT22;8243;49.048;8.396;2023-07-13T02:52:44;15.80;99.90
16271;DHT22;8243;49.048;8.396;2023-07-13T02:55:10;15.80;99.90
16271;DHT22;8243;49.048;8.396;2023-07-13T02:57:35;15.80;99.90
16271;DHT22;8243;49.048;8.396;2023-07-13T03:00:03;15.70;99.90
16271;DHT22;8243;49.048;8.396;2023-07-13T03:02:32;15.60;99.90
16271;DHT22;8243;49.048;8.396;2023-07-13T03:04:58;15.50;99.90
16271;DHT22;8243;49.048;8.396;2023-07-13T03:07:24;15.50;99.90
16271;DHT22;8243;49.048;8.396;2023-07-13T03:09:56;15.30;99.90
16271;DHT22;8243;49.048;8.396;2023-07-13T03:12:23;15.20;99.90
16271;DHT22;8243;49.048;8.396;2023-07-13T03:14:48;15.20;99.90
16271;DHT22;8243;49.048;8.396;2023-07-13T03:17:14;15.10;99.90
16271;DHT22;8243;49.048;8.396;2023-07-13T03:19:40;15.10;99.90
16271;DHT22;8243;49.048;8.396;2023-07-13T03:22:05;15.20;99.90
16271;DHT22;8243;49.048;8.396;2023-07-13T03:24:33;15.20;99.90
16271;DHT22;8243;49.048;8.396;2023-07-13T03:27:01;15.20;99.90
16271;DHT22;8243;49.048;8.396;2023-07-13T03:29:27;15.20;99.90
16271;DHT22;8243;49.048;8.396;2023-07-13T03:31:52;15.20;99.90
16271;DHT22;8243;49.048;8.396;2023-07-13T03:34:18;15.30;99.90
16271;DHT22;8243;49.048;8.396;2023-07-13T03:36:44;15.30;99.90
16271;DHT22;8243;49.048;8.396;2023-07-13T03:39:09;15.30;99.90
16271;DHT22;8243;49.048;8.396;2023-07-13T03:41:35;15.30;99.90
16271;DHT22;8243;49.048;8.396;2023-07-13T03:44:01;15.30;99.90
16271;DHT22;8243;49.048;8.396;2023-07-13T03:46:26;15.40;99.90
16271;DHT22;8243;49.048;8.396;2023-07-13T03:48:52;15.40;99.90
16271;DHT22;8243;49.048;8.396;2023-07-13T03:51:18;15.50;99.90
16271;DHT22;8243;49.048;8.396;2023-07-13T03:53:46;15.50;99.90
16271;DHT22;8243;49.048;8.396;2023-07-13T03:56:13;15.40;99.90
16271;DHT22;8243;49.048;8.396;2023-07-13T03:58:45;15.40;99.90
16271;DHT22;8243;49.048;8.396;2023-07-13T04:01:12;15.50;99.90
16271;DHT22;8243;49.048;8.396;2023-07-13T04:03:38;15.50;99.90
16271;DHT22;8243;49.048;8.396;2023-07-13T04:06:05;15.60;99.90
16271;DHT22;8243;49.048;8.396;2023-07-13T04:08:34;15.60;99.90
16271;DHT22;8243;49.048;8.396;2023-07-13T04:11:03;15.80;99.90
16271;DHT22;8243;49.048;8.396;2023-07-13T04:13:29;16.30;99.90
16271;DHT22;8243;49.048;8.396;2023-07-13T04:15:54;16.70;99.90
16271;DHT22;8243;49.048;8.396;2023-07-13T04:18:21;17.00;99.90
16271;DHT22;8243;49.048;8.396;2023-07-13T04:20:47;17.00;99.90
16271;DHT22;8243;49.048;8.396;2023-07-13T04:23:13;17.00;99.90
16271;DHT22;8243;49.048;8.396;2023-07-13T04:25:42;16.90;99.90
16271;DHT22;8243;49.048;8.396;2023-07-13T04:28:08;16.80;99.90
16271;DHT22;8243;49.048;8.396;2023-07-13T04:30:33;16.70;99.90
16271;DHT22;8243;49.048;8.396;2023-07-13T04:32:59;16.70;99.60
16271;DHT22;8243;49.048;8.396;2023-07-13T04:35:25;16.90;98.10
16271;DHT22;8243;49.048;8.396;2023-07-13T04:37:51;17.10;97.60
16271;DHT22;8243;49.048;8.396;2023-07-13T04:40:17;17.30;97.20
16271;DHT22;8243;49.048;8.396;2023-07-13T04:42:44;18.10;94.80
16271;DHT22;8243;49.048;8.396;2023-07-13T04:45:10;18.90;87.90
16271;DHT22;8243;49.048;8.396;2023-07-13T04:47:36;19.60;79.30
16271;DHT22;8243;49.048;8.396;2023-07-13T04:50:02;20.50;70.80
16271;DHT22;8243;49.048;8.396;2023-07-13T04:52:27;20.70;63.40
16271;DHT22;8243;49.048;8.396;2023-07-13T04:54:53;21.00;60.00
16271;DHT22;8243;49.048;8.396;2023-07-13T04:57:18;21.60;53.70
16271;DHT22;8243;49.048;8.396;2023-07-13T04:59:44;22.10;49.00
16271;DHT22;8243;49.048;8.396;2023-07-13T05:02:10;22.50;44.20
16271;DHT22;8243;49.048;8.396;2023-07-13T05:04:36;22.90;39.80
16271;DHT22;8243;49.048;8.396;2023-07-13T05:07:01;22.90;36.90
16271;DHT22;8243;49.048;8.396;2023-07-13T05:09:27;22.40;36.00
16271;DHT22;8243;49.048;8.396;2023-07-13T05:11:52;21.90;35.70
16271;DHT22;8243;49.048;8.396;2023-07-13T05:14:18;21.50;36.30
16271;DHT22;8243;49.048;8.396;2023-07-13T05:16:43;21.00;37.90
16271;DHT22;8243;49.048;8.396;2023-07-13T05:19:10;20.80;39.80
16271;DHT22;8243;49.048;8.396;2023-07-13T05:21:36;20.40;41.60
16271;DHT22;8243;49.048;8.396;2023-07-13T05:24:01;20.30;42.60
16271;DHT22;8243;49.048;8.396;2023-07-13T05:26:27;20.40;43.40
16271;DHT22;8243;49.048;8.396;2023-07-13T05:28:52;20.80;42.90
16271;DHT22;8243;49.048;8.396;2023-07-13T05:31:18;21.30;41.00
16271;DHT22;8243;49.048;8.396;2023-07-13T05:33:44;21.60;37.90
16271;DHT22;8243;49.048;8.396;2023-07-13T05:36:09;22.30;35.20
16271;DHT22;8243;49.048;8.396;2023-07-13T05:38:35;23.00;32.20
16271;DHT22;8243;49.048;8.396;2023-07-13T05:41:01;23.90;29.50
16271;DHT22;8243;49.048;8.396;2023-07-13T05:43:26;24.90;25.20
16271;DHT22;8243;49.048;8.396;2023-07-13T05:45:56;25.20;21.40
16271;DHT22;8243;49.048;8.396;2023-07-13T05:48:21;25.20;19.30
16271;DHT22;8243;49.048;8.396;2023-07-13T05:50:47;24.90;18.80
16271;DHT22;8243;49.048;8.396;2023-07-13T05:53:13;25.00;18.70
16271;DHT22;8243;49.048;8.396;2023-07-13T05:55:46;26.30;15.60
16271;DHT22;8243;49.048;8.396;2023-07-13T05:58:13;27.60;11.90
16271;DHT22;8243;49.048;8.396;2023-07-13T06:00:39;28.40;10.00
16271;DHT22;8243;49.048;8.396;2023-07-13T06:03:05;28.70;7.20
16271;DHT22;8243;49.048;8.396;2023-07-13T06:05:32;29.00;6.40
16271;DHT22;8243;49.048;8.396;2023-07-13T06:07:59;28.80;6.90
16271;DHT22;8243;49.048;8.396;2023-07-13T06:10:27;28.70;6.70
16271;DHT22;8243;49.048;8.396;2023-07-13T06:12:52;28.80;5.60
16271;DHT22;8243;49.048;8.396;2023-07-13T06:15:18;28.70;5.10
16271;DHT22;8243;49.048;8.396;2023-07-13T06:17:45;29.00;4.40
16271;DHT22;8243;49.048;8.396;2023-07-13T06:20:10;28.50;4.70
16271;DHT22;8243;49.048;8.396;2023-07-13T06:22:37;29.20;4.30
16271;DHT22;8243;49.048;8.396;2023-07-13T06:25:05;29.60;3.90
16271;DHT22;8243;49.048;8.396;2023-07-13T06:27:31;29.50;2.90
16271;DHT22;8243;49.048;8.396;2023-07-13T06:29:56;30.10;2.20
16271;DHT22;8243;49.048;8.396;2023-07-13T06:32:22;30.00;1.50
16271;DHT22;8243;49.048;8.396;2023-07-13T06:34:48;30.40;1.70
16271;DHT22;8243;49.048;8.396;2023-07-13T06:37:15;30.80;1.00
16271;DHT22;8243;49.048;8.396;2023-07-13T06:39:41;31.00;1.00
16271;DHT22;8243;49.048;8.396;2023-07-13T06:42:07;30.70;1.00
16271;DHT22;8243;49.048;8.396;2023-07-13T06:44:32;31.00;1.00
16271;DHT22;8243;49.048;8.396;2023-07-13T06:46:58;31.30;1.00
16271;DHT22;8243;49.048;8.396;2023-07-13T06:49:23;30.80;1.00
16271;DHT22;8243;49.048;8.396;2023-07-13T06:51:49;30.60;1.00
16271;DHT22;8243;49.048;8.396;2023-07-13T06:54:14;30.80;1.00
16271;DHT22;8243;49.048;8.396;2023-07-13T06:56:41;30.90;1.00
16271;DHT22;8243;49.048;8.396;2023-07-13T06:59:08;31.50;1.00
16271;DHT22;8243;49.048;8.396;2023-07-13T07:01:34;31.60;1.00
16271;DHT22;8243;49.048;8.396;2023-07-13T07:03:59;31.10;1.00
16271;DHT22;8243;49.048;8.396;2023-07-13T07:06:25;31.10;1.00
16271;DHT22;8243;49.048;8.396;2023-07-13T07:08:52;31.20;1.00
16271;DHT22;8243;49.048;8.396;2023-07-13T07:11:23;31.10;1.00
16271;DHT22;8243;49.048;8.396;2023-07-13T07:13:51;31.70;1.00
16271;DHT22;8243;49.048;8.396;2023-07-13T07:16:18;31.20;1.00
16271;DHT22;8243;49.048;8.396;2023-07-13T07:18:44;31.40;1.00
16271;DHT22;8243;49.048;8.396;2023-07-13T07:21:10;31.20;1.00
16271;DHT22;8243;49.048;8.396;2023-07-13T07:23:36;31.30;1.00
16271;DHT22;8243;49.048;8.396;2023-07-13T07:26:02;31.30;1.00
16271;DHT22;8243;49.048;8.396;2023-07-13T07:28:27;31.00;1.00
16271;DHT22;8243;49.048;8.396;2023-07-13T07:30:57;31.20;1.00
16271;DHT22;8243;49.048;8.396;2023-07-13T07:33:24;31.60;1.00
16271;DHT22;8243;49.048;8.396;2023-07-13T07:35:51;32.00;1.00
16271;DHT22;8243;49.048;8.396;2023-07-13T07:38:16;32.10;1.00
16271;DHT22;8243;49.048;8.396;2023-07-13T07:40:42;32.30;1.00
16271;DHT22;8243;49.048;8.396;2023-07-13T07:43:09;32.10;1.00
16271;DHT22;8243;49.048;8.396;2023-07-13T07:45:35;31.90;1.00
16271;DHT22;8243;49.048;8.396;2023-07-13T07:48:00;31.80;1.00
16271;DHT22;8243;49.048;8.396;2023-07-13T07:50:27;32.20;1.00
16271;DHT22;8243;49.048;8.396;2023-07-13T07:52:53;31.80;1.00
16271;DHT22;8243;49.048;8.396;2023-07-13T07:55:18;32.00;1.00
16271;DHT22;8243;49.048;8.396;2023-07-13T07:57:44;32.20;1.00
16271;DHT22;8243;49.048;8.396;2023-07-13T08:00:10;32.40;1.00
16271;DHT22;8243;49.048;8.396;2023-07-13T08:06:05;32.00;1.00
16271;DHT22;8243;49.048;8.396;2023-07-13T08:08:31;31.80;1.00
16271;DHT22;8243;49.048;8.396;2023-07-13T08:10:57;32.00;1.00
16271;DHT22;8243;49.048;8.396;2023-07-13T08:13:22;32.40;1.00
16271;DHT22;8243;49.048;8.396;2023-07-13T08:15:48;31.80;1.00
16271;DHT22;8243;49.048;8.396;2023-07-13T08:18:15;32.00;1.00
16271;DHT22;8243;49.048;8.396;2023-07-13T08:20:40;31.80;1.00
16271;DHT22;8243;49.048;8.396;2023-07-13T08:23:07;31.90;1.00
16271;DHT22;8243;49.048;8.396;2023-07-13T08:25:34;32.50;1.00
16271;DHT22;8243;49.048;8.396;2023-07-13T08:28:00;32.20;1.00
16271;DHT22;8243;49.048;8.396;2023-07-13T08:30:26;31.60;1.00
16271;DHT22;8243;49.048;8.396;2023-07-13T08:32:51;32.90;1.00
16271;DHT22;8243;49.048;8.396;2023-07-13T08:35:18;32.90;1.00
16271;DHT22;8243;49.048;8.396;2023-07-13T08:37:43;32.60;1.00
16271;DHT22;8243;49.048;8.396;2023-07-13T08:40:11;32.10;1.00
16271;DHT22;8243;49.048;8.396;2023-07-13T08:42:40;31.00;1.00
16271;DHT22;8243;49.048;8.396;2023-07-13T08:45:33;30.70;1.00
16271;DHT22;8243;49.048;8.396;2023-07-13T08:48:17;30.60;1.00
16271;DHT22;8243;49.048;8.396;2023-07-13T08:51:04;30.80;1.00
16271;DHT22;8243;49.048;8.396;2023-07-13T08:53:42;31.00;1.00
16271;DHT22;8243;49.048;8.396;2023-07-13T08:56:15;31.20;1.00
16271;DHT22;8243;49.048;8.396;2023-07-13T08:58:42;31.30;1.00
16271;DHT22;8243;49.048;8.396;2023-07-13T09:02:00;31.50;1.00
16271;DHT22;8243;49.048;8.396;2023-07-13T09:04:16;31.70;1.00
16271;DHT22;8243;49.048;8.396;2023-07-13T09:06:58;31.60;1.00
16271;DHT22;8243;49.048;8.396;2023-07-13T09:09:52;31.80;1.00
16271;DHT22;8243;49.048;8.396;2023-07-13T09:12:39;32.20;1.00
16271;DHT22;8243;49.048;8.396;2023-07-13T09:15:27;31.80;1.00
16271;DHT22;8243;49.048;8.396;2023-07-13T09:17:59;31.80;1.00
16271;DHT22;8243;49.048;8.396;2023-07-13T09:23:31;31.40;1.00
16271;DHT22;8243;49.048;8.396;2023-07-13T09:26:13;31.50;1.00
16271;DHT22;8243;49.048;8.396;2023-07-13T09:28:43;31.80;1.00
16271;DHT22;8243;49.048;8.396;2023-07-13T09:33:39;31.20;1.00
16271;DHT22;8243;49.048;8.396;2023-07-13T09:36:30;31.20;1.00
16271;DHT22;8243;49.048;8.396;2023-07-13T09:39:10;31.50;1.00
16271;DHT22;8243;49.048;8.396;2023-07-13T09:41:41;31.20;1.00
16271;DHT22;8243;49.048;8.396;2023-07-13T09:44:13;31.00;1.00
16271;DHT22;8243;49.048;8.396;2023-07-13T09:46:52;30.60;1.00
16271;DHT22;8243;49.048;8.396;2023-07-13T09:49:35;30.70;1.00
16271;DHT22;8243;49.048;8.396;2023-07-13T09:52:12;30.40;1.00
16271;DHT22;8243;49.048;8.396;2023-07-13T09:54:38;30.40;1.00
16271;DHT22;8243;49.048;8.396;2023-07-13T09:57:12;31.10;1.00
16271;DHT22;8243;49.048;8.396;2023-07-13T09:59:44;31.30;1.00
16271;DHT22;8243;49.048;8.396;2023-07-13T10:05:05;30.90;1.00
16271;DHT22;8243;49.048;8.396;2023-07-13T10:07:32;30.60;1.00
16271;DHT22;8243;49.048;8.396;2023-07-13T10:10:03;30.70;1.00
16271;DHT22;8243;49.048;8.396;2023-07-13T10:12:30;30.70;1.00
16271;DHT22;8243;49.048;8.396;2023-07-13T10:15:01;30.70;1.00
16271;DHT22;8243;49.048;8.396;2023-07-13T10:17:29;30.70;1.00
16271;DHT22;8243;49.048;8.396;2023-07-13T10:19:59;30.70;1.00
16271;DHT22;8243;49.048;8.396;2023-07-13T10:22:37;31.00;1.00
16271;DHT22;8243;49.048;8.396;2023-07-13T10:25:21;30.80;1.00
16271;DHT22;8243;49.048;8.396;2023-07-13T10:27:50;30.00;1.00
16271;DHT22;8243;49.048;8.396;2023-07-13T10:30:29;30.40;1.00
16271;DHT22;8243;49.048;8.396;2023-07-13T10:32:58;30.70;1.00
16271;DHT22;8243;49.048;8.396;2023-07-13T10:35:26;31.00;1.00
16271;DHT22;8243;49.048;8.396;2023-07-13T10:40:32;30.90;1.00
16271;DHT22;8243;49.048;8.396;2023-07-13T10:43:01;30.70;1.00
16271;DHT22;8243;49.048;8.396;2023-07-13T10:45:30;30.60;1.00
16271;DHT22;8243;49.048;8.396;2023-07-13T10:47:56;30.30;1.00
16271;DHT22;8243;49.048;8.396;2023-07-13T10:50:25;30.30;1.00
16271;DHT22;8243;49.048;8.396;2023-07-13T10:52:53;30.30;1.00
16271;DHT22;8243;49.048;8.396;2023-07-13T10:58:22;30.30;1.00
16271;DHT22;8243;49.048;8.396;2023-07-13T11:03:35;30.70;1.00
16271;DHT22;8243;49.048;8.396;2023-07-13T11:06:15;30.30;1.00
16271;DHT22;8243;49.048;8.396;2023-07-13T11:08:54;30.50;1.00
16271;DHT22;8243;49.048;8.396;2023-07-13T11:13:58;29.70;1.00
16271;DHT22;8243;49.048;8.396;2023-07-13T11:21:33;28.80;1.00
16271;DHT22;8243;49.048;8.396;2023-07-13T11:24:15;28.60;1.00
16271;DHT22;8243;49.048;8.396;2023-07-13T11:29:20;28.60;1.00
16271;DHT22;8243;49.048;8.396;2023-07-13T11:31:54;28.90;1.00
16271;DHT22;8243;49.048;8.396;2023-07-13T11:34:27;28.90;1.00
16271;DHT22;8243;49.048;8.396;2023-07-13T11:36:54;29.10;1.00
16271;DHT22;8243;49.048;8.396;2023-07-13T11:41:58;28.10;1.00
16271;DHT22;8243;49.048;8.396;2023-07-13T11:44:28;28.20;1.00
16271;DHT22;8243;49.048;8.396;2023-07-13T11:46:56;28.70;1.00
16271;DHT22;8243;49.048;8.396;2023-07-13T11:49:24;29.20;1.00
16271;DHT22;8243;49.048;8.396;2023-07-13T11:51:51;29.70;1.00
16271;DHT22;8243;49.048;8.396;2023-07-13T11:54:24;29.60;1.00
16271;DHT22;8243;49.048;8.396;2023-07-13T11:56:51;29.40;1.00
16271;DHT22;8243;49.048;8.396;2023-07-13T11:59:18;29.20;1.00
16271;DHT22;8243;49.048;8.396;2023-07-13T12:01:46;29.50;1.00
16271;DHT22;8243;49.048;8.396;2023-07-13T12:04:26;29.90;1.00
16271;DHT22;8243;49.048;8.396;2023-07-13T12:09:29;30.90;1.00
16271;DHT22;8243;49.048;8.396;2023-07-13T12:11:57;30.60;1.00
16271;DHT22;8243;49.048;8.396;2023-07-13T12:14:23;29.70;1.00
16271;DHT22;8243;49.048;8.396;2023-07-13T12:16:50;29.20;1.00
16271;DHT22;8243;49.048;8.396;2023-07-13T12:19:26;28.80;1.00
16271;DHT22;8243;49.048;8.396;2023-07-13T12:21:55;28.50;1.00
16271;DHT22;8243;49.048;8.396;2023-07-13T12:24:22;28.40;1.00
16271;DHT22;8243;49.048;8.396;2023-07-13T12:27:00;28.40;1.00
16271;DHT22;8243;49.048;8.396;2023-07-13T12:29:26;28.50;1.00
16271;DHT22;8243;49.048;8.396;2023-07-13T12:31:52;28.80;1.00
16271;DHT22;8243;49.048;8.396;2023-07-13T12:34:20;28.90;1.00
16271;DHT22;8243;49.048;8.396;2023-07-13T12:37:02;29.10;1.00
16271;DHT22;8243;49.048;8.396;2023-07-13T12:39:35;29.10;1.00
16271;DHT22;8243;49.048;8.396;2023-07-13T12:42:25;28.90;1.00
16271;DHT22;8243;49.048;8.396;2023-07-13T12:44:57;28.50;1.00
16271;DHT22;8243;49.048;8.396;2023-07-13T12:47:24;28.40;1.00
16271;DHT22;8243;49.048;8.396;2023-07-13T12:49:54;28.40;1.00
16271;DHT22;8243;49.048;8.396;2023-07-13T12:52:23;28.80;1.00
16271;DHT22;8243;49.048;8.396;2023-07-13T12:55:13;29.40;1.00
16271;DHT22;8243;49.048;8.396;2023-07-13T12:57:56;29.80;1.00
16271;DHT22;8243;49.048;8.396;2023-07-13T13:00:33;30.40;1.00
16271;DHT22;8243;49.048;8.396;2023-07-13T13:03:28;30.30;1.00
16271;DHT22;8243;49.048;8.396;2023-07-13T13:05:57;29.70;1.00
16271;DHT22;8243;49.048;8.396;2023-07-13T13:08:25;29.30;1.00
16271;DHT22;8243;49.048;8.396;2023-07-13T13:10:50;29.30;1.00
16271;DHT22;8243;49.048;8.396;2023-07-13T13:13:16;29.80;1.00
16271;DHT22;8243;49.048;8.396;2023-07-13T13:15:41;30.10;1.00
16271;DHT22;8243;49.048;8.396;2023-07-13T13:18:16;30.00;1.00
16271;DHT22;8243;49.048;8.396;2023-07-13T13:20:42;29.70;1.00
16271;DHT22;8243;49.048;8.396;2023-07-13T13:23:18;29.70;1.00
16271;DHT22;8243;49.048;8.396;2023-07-13T13:25:46;29.90;1.00
16271;DHT22;8243;49.048;8.396;2023-07-13T13:28:17;29.70;1.00
16271;DHT22;8243;49.048;8.396;2023-07-13T13:30:45;29.20;1.00
16271;DHT22;8243;49.048;8.396;2023-07-13T13:33:13;28.60;1.00
16271;DHT22;8243;49.048;8.396;2023-07-13T13:35:40;28.60;1.00
16271;DHT22;8243;49.048;8.396;2023-07-13T13:38:16;28.80;1.00
16271;DHT22;8243;49.048;8.396;2023-07-13T13:40:43;28.90;1.00
16271;DHT22;8243;49.048;8.396;2023-07-13T13:43:17;28.90;1.00
16271;DHT22;8243;49.048;8.396;2023-07-13T13:45:43;28.80;1.00
16271;DHT22;8243;49.048;8.396;2023-07-13T13:48:18;28.50;1.00
16271;DHT22;8243;49.048;8.396;2023-07-13T13:50:44;28.50;1.00
16271;DHT22;8243;49.048;8.396;2023-07-13T13:53:12;28.70;1.00
16271;DHT22;8243;49.048;8.396;2023-07-13T13:55:39;28.90;1.00
16271;DHT22;8243;49.048;8.396;2023-07-13T13:58:07;29.20;1.00
16271;DHT22;8243;49.048;8.396;2023-07-13T14:00:33;29.20;1.00
16271;DHT22;8243;49.048;8.396;2023-07-13T14:02:59;29.00;1.00
16271;DHT22;8243;49.048;8.396;2023-07-13T14:05:25;29.10;1.00
16271;DHT22;8243;49.048;8.396;2023-07-13T14:07:52;29.40;1.00
16271;DHT22;8243;49.048;8.396;2023-07-13T14:10:19;29.30;1.00
16271;DHT22;8243;49.048;8.396;2023-07-13T14:12:51;29.30;1.00
16271;DHT22;8243;49.048;8.396;2023-07-13T14:15:27;29.20;1.00
16271;DHT22;8243;49.048;8.396;2023-07-13T14:17:54;29.30;1.00
16271;DHT22;8243;49.048;8.396;2023-07-13T14:20:21;28.90;1.00
16271;DHT22;8243;49.048;8.396;2023-07-13T14:22:50;28.20;1.00
16271;DHT22;8243;49.048;8.396;2023-07-13T14:25:17;27.80;1.00
16271;DHT22;8243;49.048;8.396;2023-07-13T14:27:44;27.70;1.00
16271;DHT22;8243;49.048;8.396;2023-07-13T14:30:13;28.10;1.00
16271;DHT22;8243;49.048;8.396;2023-07-13T14:32:40;28.10;1.00
16271;DHT22;8243;49.048;8.396;2023-07-13T14:35:05;28.00;1.00
16271;DHT22;8243;49.048;8.396;2023-07-13T14:37:31;28.70;1.00
16271;DHT22;8243;49.048;8.396;2023-07-13T14:39:57;28.90;1.00
16271;DHT22;8243;49.048;8.396;2023-07-13T14:42:22;28.80;1.00
16271;DHT22;8243;49.048;8.396;2023-07-13T14:44:48;28.70;1.00
16271;DHT22;8243;49.048;8.396;2023-07-13T14:47:14;28.30;1.00
16271;DHT22;8243;49.048;8.396;2023-07-13T14:49:43;28.20;1.00
16271;DHT22;8243;49.048;8.396;2023-07-13T14:52:21;28.20;1.00
16271;DHT22;8243;49.048;8.396;2023-07-13T14:54:48;28.20;1.00
16271;DHT22;8243;49.048;8.396;2023-07-13T14:57:19;28.50;1.00
16271;DHT22;8243;49.048;8.396;2023-07-13T14:59:45;28.80;1.00
16271;DHT22;8243;49.048;8.396;2023-07-13T15:02:27;28.80;1.00
16271;DHT22;8243;49.048;8.396;2023-07-13T15:04:53;28.80;1.00
16271;DHT22;8243;49.048;8.396;2023-07-13T15:07:19;28.50;1.00
16271;DHT22;8243;49.048;8.396;2023-07-13T15:09:46;28.10;1.00
16271;DHT22;8243;49.048;8.396;2023-07-13T15:12:13;27.90;1.00
16271;DHT22;8243;49.048;8.396;2023-07-13T15:14:39;28.10;1.00
16271;DHT22;8243;49.048;8.396;2023-07-13T15:17:05;28.40;1.00
16271;DHT22;8243;49.048;8.396;2023-07-13T15:19:31;28.60;1.00
16271;DHT22;8243;49.048;8.396;2023-07-13T15:21:57;28.50;1.00
16271;DHT22;8243;49.048;8.396;2023-07-13T15:24:23;28.60;1.00
16271;DHT22;8243;49.048;8.396;2023-07-13T15:26:49;28.40;1.00
16271;DHT22;8243;49.048;8.396;2023-07-13T15:29:16;28.20;1.00
16271;DHT22;8243;49.048;8.396;2023-07-13T15:31:42;28.50;1.00
16271;DHT22;8243;49.048;8.396;2023-07-13T15:34:15;28.80;1.00
16271;DHT22;8243;49.048;8.396;2023-07-13T15:36:41;28.90;1.00
16271;DHT22;8243;49.048;8.396;2023-07-13T15:39:14;28.70;1.00
16271;DHT22;8243;49.048;8.396;2023-07-13T15:41:41;28.60;1.00
16271;DHT22;8243;49.048;8.396;2023-07-13T15:44:25;28.40;1.00
16271;DHT22;8243;49.048;8.396;2023-07-13T15:46:52;28.30;1.00
16271;DHT22;8243;49.048;8.396;2023-07-13T15:49:17;28.40;1.00
16271;DHT22;8243;49.048;8.396;2023-07-13T15:51:43;28.60;1.00
16271;DHT22;8243;49.048;8.396;2023-07-13T15:54:13;28.70;1.00
16271;DHT22;8243;49.048;8.396;2023-07-13T15:56:40;27.90;1.00
16271;DHT22;8243;49.048;8.396;2023-07-13T15:59:09;27.50;1.00
16271;DHT22;8243;49.048;8.396;2023-07-13T16:01:37;27.60;1.00
16271;DHT22;8243;49.048;8.396;2023-07-13T16:04:03;27.60;1.00
16271;DHT22;8243;49.048;8.396;2023-07-13T16:06:33;27.50;1.00
16271;DHT22;8243;49.048;8.396;2023-07-13T16:09:02;27.20;1.00
16271;DHT22;8243;49.048;8.396;2023-07-13T16:11:35;27.40;1.00
16271;DHT22;8243;49.048;8.396;2023-07-13T16:14:02;27.60;1.00
16271;DHT22;8243;49.048;8.396;2023-07-13T16:16:30;27.80;1.00
16271;DHT22;8243;49.048;8.396;2023-07-13T16:18:58;27.60;1.00
16271;DHT22;8243;49.048;8.396;2023-07-13T16:21:29;27.60;1.00
16271;DHT22;8243;49.048;8.396;2023-07-13T16:23:57;27.60;1.00
16271;DHT22;8243;49.048;8.396;2023-07-13T16:26:34;27.40;1.00
16271;DHT22;8243;49.048;8.396;2023-07-13T16:29:21;27.40;1.00
16271;DHT22;8243;49.048;8.396;2023-07-13T16:34:21;27.30;1.00
16271;DHT22;8243;49.048;8.396;2023-07-13T16:36:46;27.40;1.00
16271;DHT22;8243;49.048;8.396;2023-07-13T16:39:12;27.50;1.00
16271;DHT22;8243;49.048;8.396;2023-07-13T16:41:40;27.60;1.00
16271;DHT22;8243;49.048;8.396;2023-07-13T16:44:17;27.60;1.00